Buoy 13519

sailwx.info

Track history (hours):
 
Tides and Currents Weather Stations Pressure Air Temp Water Temp Dewpoint Dewpoint Depression Visibility Wind Speed Wind Dir Waves Ship Positions

Drifting buoy 13519

Last reported at 2015-Feb-27 23:00 UTC. Time now 2015-Feb-28 00:45 UTC.
Position N 16°04' W 027°21'.

Barometer 1016.6 mb
Water temperature 22.0 ° C

Date/timePositionNaut miles runAvg speedWind from/ knotsBaromVisibWave heightAir tempDewpointWater temp
2015-Feb-27 23:00N 16°04' W 027°21'2 2.5 1016.6 22.0
2015-Feb-27 22:00N 16°03' W 027°19'1 0.5 1016.2 22.0
2015-Feb-27 19:00N 16°05' W 027°19'1 1.4 1014.1 22.0
2015-Feb-27 18:00N 16°03' W 027°19'0 0.2 1013.6 22.1
2015-Feb-27 17:00N 16°03' W 027°19'1 0.8 1013.4 22.1
2015-Feb-27 16:00N 16°03' W 027°19'2 1.0 1013.8 22.1
2015-Feb-27 14:00N 16°01' W 027°18'1 0.2 1014.7 22.0
2015-Feb-27 11:00N 16°02' W 027°19'2 2.4 1015.9 22.0
2015-Feb-27 10:00N 15°60' W 027°17'1 0.7 1015.7 22.0
2015-Feb-27 08:00N 15°59' W 027°16'1 0.7 1014.6 22.0
2015-Feb-27 06:00N 15°59' W 027°14'0 0.0 1013.7 22.0
2015-Feb-27 05:00N 15°59' W 027°14'3 0.5 1013.8 22.0
2015-Feb-26 23:00N 15°58' W 027°11'0 0.1 1015.2 22.0
2015-Feb-26 19:00N 15°59' W 027°11'0 0.3 1013.7 22.0
2015-Feb-26 18:00N 15°58' W 027°11'2 0.8 1013.7 22.1
2015-Feb-26 16:00N 15°59' W 027°10'0 0.2 1014.5 22.1
2015-Feb-26 14:00N 15°59' W 027°09'0 0.1 1016.3 22.0
2015-Feb-26 12:00N 15°59' W 027°10'0 0.0 1017.5 22.0
2015-Feb-26 11:00N 15°59' W 027°10'1 0.9 1017.1 22.0
2015-Feb-26 10:00N 15°58' W 027°09'1 0.3 1017.1 22.0
2015-Feb-26 06:00N 15°57' W 027°09'1 0.5 1015.9 22.0
2015-Feb-26 03:00N 15°56' W 027°08'2 1.7 1016.7 22.0
2015-Feb-26 02:00N 15°57' W 027°09'2 0.6 1017.5 22.0
2015-Feb-25 23:00N 15°55' W 027°08'1 0.3 1018.2 22.0
2015-Feb-25 20:00N 15°55' W 027°08'2 0.8 1017.5 22.1
2015-Feb-25 18:00N 15°54' W 027°06'0 0.0 1016.8 22.1
2015-Feb-25 17:00N 15°54' W 027°06'1 0.5 1016.9 22.1
2015-Feb-25 15:00N 15°54' W 027°05'2 0.5 1017.8 22.1
2015-Feb-25 12:00N 15°52' W 027°04'2 0.8 1019.5 22.0
2015-Feb-25 10:00N 15°52' W 027°03'1 0.2 1018.8 22.0
2015-Feb-25 07:00N 15°52' W 027°03'1 0.7 1017.7 22.0
2015-Feb-25 06:00N 15°52' W 027°03'0 0.2 1017.5 22.0
2015-Feb-25 05:00N 15°52' W 027°02'1 0.6 1017.5 22.0
2015-Feb-25 03:00N 15°51' W 027°01'1 0.2 1018.2 22.0
2015-Feb-24 23:00N 15°50' W 027°01'1 0.8 1019.4 22.0
2015-Feb-24 22:00N 15°50' W 027°00'1 0.3 1019.1 22.0
2015-Feb-24 19:00N 15°50' W 026°60'0 0.3 1017.6 22.1
2015-Feb-24 18:00N 15°50' W 026°60'0 0.1 1017.4 22.1
2015-Feb-24 15:00N 15°50' W 026°59'3 0.7 1018.1 22.1
2015-Feb-24 11:00N 15°47' W 026°59'0 0.0 1019.8 22.0
2015-Feb-24 10:00N 15°47' W 026°59'0 0.0 1019.4 21.9
2015-Feb-24 09:00N 15°47' W 026°59'1 0.3 1018.8 21.9
2015-Feb-24 07:00N 15°47' W 026°58'1 1.0 1016.8 21.9
2015-Feb-24 06:00N 15°47' W 026°59'3 2.6 1016.9 21.9
2015-Feb-24 05:00N 15°45' W 026°57'0 0.0 1016.8 21.9
2015-Feb-24 04:00N 15°45' W 026°57'0 0.0 1017.4 21.9
2015-Feb-24 03:00N 15°45' W 026°57'0 0.0 1017.8 21.9
2015-Feb-23 23:00N 15°45' W 026°57'2 2.4 1018.5 22.0
2015-Feb-23 22:00N 15°43' W 026°56'0 0.0 1018.1 22.0
2015-Feb-23 21:00N 15°43' W 026°56'1 0.3 1017.2 22.0
2015-Feb-23 19:00N 15°42' W 026°55'1 0.6 1016.3 22.1
2015-Feb-23 17:00N 15°42' W 026°54'0 0.0 1016.1 22.1
2015-Feb-23 16:00N 15°42' W 026°54'0 0.0 1016.4 22.1
2015-Feb-23 15:00N 15°42' W 026°54'3 1.0 1017.1 22.1
2015-Feb-23 12:00N 15°41' W 026°52'0 0.1 1018.3 22.0
2015-Feb-23 10:00N 15°41' W 026°52'0 0.0 1017.9 21.9
2015-Feb-23 09:00N 15°41' W 026°52'0 0.1 1017.5 21.9
2015-Feb-23 07:00N 15°41' W 026°52'0 0.0 1017.0 21.9
2015-Feb-23 06:00N 15°41' W 026°52'1 0.9 1016.9 21.9
2015-Feb-23 05:00N 15°41' W 026°51'1 1.2 1017.0 21.9
2015-Feb-23 04:00N 15°41' W 026°52'0 0.0 1017.1 21.9
2015-Feb-23 02:00N 15°41' W 026°52'1 0.3 1017.8 22.0
2015-Feb-22 23:00N 15°41' W 026°51'2 2.0 1018.5 22.0
2015-Feb-22 22:00N 15°39' W 026°51'0 0.2 1017.7 22.0
2015-Feb-22 20:00N 15°39' W 026°51'1 0.5 1016.6 22.0
2015-Feb-22 18:00N 15°38' W 026°51'0 0.5 1016.4 22.0
2015-Feb-22 17:00N 15°37' W 026°51'2 1.1 1016.3 22.0
2015-Feb-22 15:00N 15°37' W 026°49'2 0.6 1017.2 22.0
2015-Feb-22 11:00N 15°34' W 026°48'0 0.0 1019.4 22.0
2015-Feb-22 10:00N 15°34' W 026°48'0 0.1 1018.7 22.0
2015-Feb-22 07:00N 15°34' W 026°48'1 1.1 1018.2 22.0
2015-Feb-22 06:00N 15°34' W 026°47'1 0.8 1018.2 22.0
2015-Feb-22 05:00N 15°33' W 026°46'0 0.3 1018.2 22.0
2015-Feb-22 04:00N 15°33' W 026°46'0 0.3 1018.5 22.0
2015-Feb-22 03:00N 15°34' W 026°45'0 0.0 1018.8 22.0
2015-Feb-22 02:00N 15°34' W 026°45'2 1.1 1018.8 22.0
2015-Feb-22 00:00N 15°34' W 026°43'3 0.5 1018.6 22.0
2015-Feb-21 17:00N 15°32' W 026°40'2 0.3 1017.0 22.1
2015-Feb-21 12:00N 15°31' W 026°39'0 0.0 1019.8 22.1
2015-Feb-21 11:00N 15°31' W 026°39'1 0.2 1019.5 22.1
2015-Feb-21 08:00N 15°31' W 026°39'1 0.4 1017.8 22.1
2015-Feb-21 06:00N 15°30' W 026°38'0 0.0 1017.3 22.1
2015-Feb-21 03:00N 15°30' W 026°38'2 0.5 1018.2 22.1
2015-Feb-20 23:00N 15°29' W 026°36'3 0.5 1018.7 22.1
2015-Feb-20 18:00N 15°26' W 026°35'1 0.7 1016.9 22.2
2015-Feb-20 17:00N 15°27' W 026°35'1 0.7 1017.4 22.2
2015-Feb-20 16:00N 15°26' W 026°34'2 0.8 1017.9 22.2
2015-Feb-20 14:00N 15°25' W 026°33'5 0.8 1018.8 22.2
2015-Feb-20 08:00N 15°21' W 026°30'0 0.0 1018.4 22.3
2015-Feb-20 07:00N 15°21' W 026°30'2 1.8 1018.1 22.3
2015-Feb-20 06:00N 15°21' W 026°28'5 1.7 1017.9 22.3
2015-Feb-20 03:00N 15°18' W 026°23'5 5.0 1018.2 22.3
2015-Feb-20 02:00N 15°21' W 026°28'8 0.8 1018.4 22.3
2015-Feb-19 16:00N 15°18' W 026°20'0 0.0 1016.3 22.6
2015-Feb-19 15:00N 15°18' W 026°20'1 0.9 1016.7 22.5
2015-Feb-19 14:00N 15°17' W 026°19'0 0.0 1017.4 22.5
2015-Feb-19 13:00N 15°17' W 026°19'1 1.4 1018.1 22.5
2015-Feb-19 12:00N 15°17' W 026°18'2 1.6 1018.5 22.5
2015-Feb-19 11:00N 15°19' W 026°18'5 0.7 1018.3 22.5
2015-Feb-19 03:00N 15°14' W 026°16'0 0.0 1016.2 22.6
2015-Feb-18 23:00N 15°14' W 026°16'5 1.0 1016.7 22.6
2015-Feb-18 18:00N 15°10' W 026°12'1 0.4 1014.3 22.7
2015-Feb-18 16:00N 15°09' W 026°12'3 1.3 1014.5 22.7
2015-Feb-18 14:00N 15°08' W 026°09'0 0.0 1015.6 22.6
2015-Feb-18 12:00N 15°08' W 026°09'2 1.8 1016.6 22.6
2015-Feb-18 11:00N 15°07' W 026°09'0 0.0 1016.5 22.6
2015-Feb-18 10:00N 15°07' W 026°09'0 0.0 1016.1 22.6
2015-Feb-18 08:00N 15°07' W 026°09'1 1.0 1015.1 22.6
2015-Feb-18 07:00N 15°06' W 026°08'1 1.4 1014.7 22.6
2015-Feb-18 06:00N 15°06' W 026°06'1 0.5 1014.5 22.6
2015-Feb-18 03:00N 15°07' W 026°05'2 1.7 1015.5 22.6
2015-Feb-18 02:00N 15°06' W 026°07'2 0.6 1016.2 22.6
2015-Feb-17 23:00N 15°06' W 026°05'   1016.6 22.6
Track history (hours):
 
Tides and Currents Weather Stations Pressure Air Temp Water Temp Dewpoint Dewpoint Depression Visibility Wind Speed Wind Dir Waves Ship Positions

Drifting buoy 13519

Last reported at 2015-Feb-27 23:00 UTC. Time now 2015-Feb-28 00:45 UTC.
Position N 16°04' W 027°21'.

Barometer 1016.6 mb
Water temperature 22.0 ° C

Date/timePositionNaut miles runAvg speedWind from/ knotsBaromVisibWave heightAir tempDewpointWater temp
2015-Feb-27 23:00N 16°04' W 027°21'2 2.5 1016.6 22.0
2015-Feb-27 22:00N 16°03' W 027°19'1 0.5 1016.2 22.0
2015-Feb-27 19:00N 16°05' W 027°19'1 1.4 1014.1 22.0
2015-Feb-27 18:00N 16°03' W 027°19'0 0.2 1013.6 22.1
2015-Feb-27 17:00N 16°03' W 027°19'1 0.8 1013.4 22.1
2015-Feb-27 16:00N 16°03' W 027°19'2 1.0 1013.8 22.1
2015-Feb-27 14:00N 16°01' W 027°18'1 0.2 1014.7 22.0
2015-Feb-27 11:00N 16°02' W 027°19'2 2.4 1015.9 22.0
2015-Feb-27 10:00N 15°60' W 027°17'1 0.7 1015.7 22.0
2015-Feb-27 08:00N 15°59' W 027°16'1 0.7 1014.6 22.0
2015-Feb-27 06:00N 15°59' W 027°14'0 0.0 1013.7 22.0
2015-Feb-27 05:00N 15°59' W 027°14'3 0.5 1013.8 22.0
2015-Feb-26 23:00N 15°58' W 027°11'0 0.1 1015.2 22.0
2015-Feb-26 19:00N 15°59' W 027°11'0 0.3 1013.7 22.0
2015-Feb-26 18:00N 15°58' W 027°11'2 0.8 1013.7 22.1
2015-Feb-26 16:00N 15°59' W 027°10'0 0.2 1014.5 22.1
2015-Feb-26 14:00N 15°59' W 027°09'0 0.1 1016.3 22.0
2015-Feb-26 12:00N 15°59' W 027°10'0 0.0 1017.5 22.0
2015-Feb-26 11:00N 15°59' W 027°10'1 0.9 1017.1 22.0
2015-Feb-26 10:00N 15°58' W 027°09'1 0.3 1017.1 22.0
2015-Feb-26 06:00N 15°57' W 027°09'1 0.5 1015.9 22.0
2015-Feb-26 03:00N 15°56' W 027°08'2 1.7 1016.7 22.0
2015-Feb-26 02:00N 15°57' W 027°09'2 0.6 1017.5 22.0
2015-Feb-25 23:00N 15°55' W 027°08'1 0.3 1018.2 22.0
2015-Feb-25 20:00N 15°55' W 027°08'2 0.8 1017.5 22.1
2015-Feb-25 18:00N 15°54' W 027°06'0 0.0 1016.8 22.1
2015-Feb-25 17:00N 15°54' W 027°06'1 0.5 1016.9 22.1
2015-Feb-25 15:00N 15°54' W 027°05'2 0.5 1017.8 22.1
2015-Feb-25 12:00N 15°52' W 027°04'2 0.8 1019.5 22.0
2015-Feb-25 10:00N 15°52' W 027°03'1 0.2 1018.8 22.0
2015-Feb-25 07:00N 15°52' W 027°03'1 0.7 1017.7 22.0
2015-Feb-25 06:00N 15°52' W 027°03'0 0.2 1017.5 22.0
2015-Feb-25 05:00N 15°52' W 027°02'1 0.6 1017.5 22.0
2015-Feb-25 03:00N 15°51' W 027°01'1 0.2 1018.2 22.0
2015-Feb-24 23:00N 15°50' W 027°01'1 0.8 1019.4 22.0
2015-Feb-24 22:00N 15°50' W 027°00'1 0.3 1019.1 22.0
2015-Feb-24 19:00N 15°50' W 026°60'0 0.3 1017.6 22.1
2015-Feb-24 18:00N 15°50' W 026°60'0 0.1 1017.4 22.1
2015-Feb-24 15:00N 15°50' W 026°59'3 0.7 1018.1 22.1
2015-Feb-24 11:00N 15°47' W 026°59'0 0.0 1019.8 22.0
2015-Feb-24 10:00N 15°47' W 026°59'0 0.0 1019.4 21.9
2015-Feb-24 09:00N 15°47' W 026°59'1 0.3 1018.8 21.9
2015-Feb-24 07:00N 15°47' W 026°58'1 1.0 1016.8 21.9
2015-Feb-24 06:00N 15°47' W 026°59'3 2.6 1016.9 21.9
2015-Feb-24 05:00N 15°45' W 026°57'0 0.0 1016.8 21.9
2015-Feb-24 04:00N 15°45' W 026°57'0 0.0 1017.4 21.9
2015-Feb-24 03:00N 15°45' W 026°57'0 0.0 1017.8 21.9
2015-Feb-23 23:00N 15°45' W 026°57'2 2.4 1018.5 22.0
2015-Feb-23 22:00N 15°43' W 026°56'0 0.0 1018.1 22.0
2015-Feb-23 21:00N 15°43' W 026°56'1 0.3 1017.2 22.0
2015-Feb-23 19:00N 15°42' W 026°55'1 0.6 1016.3 22.1
2015-Feb-23 17:00N 15°42' W 026°54'0 0.0 1016.1 22.1
2015-Feb-23 16:00N 15°42' W 026°54'0 0.0 1016.4 22.1
2015-Feb-23 15:00N 15°42' W 026°54'3 1.0 1017.1 22.1
2015-Feb-23 12:00N 15°41' W 026°52'0 0.1 1018.3 22.0
2015-Feb-23 10:00N 15°41' W 026°52'0 0.0 1017.9 21.9
2015-Feb-23 09:00N 15°41' W 026°52'0 0.1 1017.5 21.9
2015-Feb-23 07:00N 15°41' W 026°52'0 0.0 1017.0 21.9
2015-Feb-23 06:00N 15°41' W 026°52'1 0.9 1016.9 21.9
2015-Feb-23 05:00N 15°41' W 026°51'1 1.2 1017.0 21.9
2015-Feb-23 04:00N 15°41' W 026°52'0 0.0 1017.1 21.9
2015-Feb-23 02:00N 15°41' W 026°52'1 0.3 1017.8 22.0
2015-Feb-22 23:00N 15°41' W 026°51'2 2.0 1018.5 22.0
2015-Feb-22 22:00N 15°39' W 026°51'0 0.2 1017.7 22.0
2015-Feb-22 20:00N 15°39' W 026°51'1 0.5 1016.6 22.0
2015-Feb-22 18:00N 15°38' W 026°51'0 0.5 1016.4 22.0
2015-Feb-22 17:00N 15°37' W 026°51'2 1.1 1016.3 22.0
2015-Feb-22 15:00N 15°37' W 026°49'2 0.6 1017.2 22.0
2015-Feb-22 11:00N 15°34' W 026°48'0 0.0 1019.4 22.0
2015-Feb-22 10:00N 15°34' W 026°48'0 0.1 1018.7 22.0
2015-Feb-22 07:00N 15°34' W 026°48'1 1.1 1018.2 22.0
2015-Feb-22 06:00N 15°34' W 026°47'1 0.8 1018.2 22.0
2015-Feb-22 05:00N 15°33' W 026°46'0 0.3 1018.2 22.0
2015-Feb-22 04:00N 15°33' W 026°46'0 0.3 1018.5 22.0
2015-Feb-22 03:00N 15°34' W 026°45'0 0.0 1018.8 22.0
2015-Feb-22 02:00N 15°34' W 026°45'2 1.1 1018.8 22.0
2015-Feb-22 00:00N 15°34' W 026°43'3 0.5 1018.6 22.0
2015-Feb-21 17:00N 15°32' W 026°40'2 0.3 1017.0 22.1
2015-Feb-21 12:00N 15°31' W 026°39'0 0.0 1019.8 22.1
2015-Feb-21 11:00N 15°31' W 026°39'1 0.2 1019.5 22.1
2015-Feb-21 08:00N 15°31' W 026°39'1 0.4 1017.8 22.1
2015-Feb-21 06:00N 15°30' W 026°38'0 0.0 1017.3 22.1
2015-Feb-21 03:00N 15°30' W 026°38'2 0.5 1018.2 22.1
2015-Feb-20 23:00N 15°29' W 026°36'3 0.5 1018.7 22.1
2015-Feb-20 18:00N 15°26' W 026°35'1 0.7 1016.9 22.2
2015-Feb-20 17:00N 15°27' W 026°35'1 0.7 1017.4 22.2
2015-Feb-20 16:00N 15°26' W 026°34'2 0.8 1017.9 22.2
2015-Feb-20 14:00N 15°25' W 026°33'5 0.8 1018.8 22.2
2015-Feb-20 08:00N 15°21' W 026°30'0 0.0 1018.4 22.3
2015-Feb-20 07:00N 15°21' W 026°30'2 1.8 1018.1 22.3
2015-Feb-20 06:00N 15°21' W 026°28'5 1.7 1017.9 22.3
2015-Feb-20 03:00N 15°18' W 026°23'5 5.0 1018.2 22.3
2015-Feb-20 02:00N 15°21' W 026°28'8 0.8 1018.4 22.3
2015-Feb-19 16:00N 15°18' W 026°20'0 0.0 1016.3 22.6
2015-Feb-19 15:00N 15°18' W 026°20'1 0.9 1016.7 22.5
2015-Feb-19 14:00N 15°17' W 026°19'0 0.0 1017.4 22.5
2015-Feb-19 13:00N 15°17' W 026°19'1 1.4 1018.1 22.5
2015-Feb-19 12:00N 15°17' W 026°18'2 1.6 1018.5 22.5
2015-Feb-19 11:00N 15°19' W 026°18'5 0.7 1018.3 22.5
2015-Feb-19 03:00N 15°14' W 026°16'0 0.0 1016.2 22.6
2015-Feb-18 23:00N 15°14' W 026°16'5 1.0 1016.7 22.6
2015-Feb-18 18:00N 15°10' W 026°12'1 0.4 1014.3 22.7
2015-Feb-18 16:00N 15°09' W 026°12'3 1.3 1014.5 22.7
2015-Feb-18 14:00N 15°08' W 026°09'0 0.0 1015.6 22.6
2015-Feb-18 12:00N 15°08' W 026°09'2 1.8 1016.6 22.6
2015-Feb-18 11:00N 15°07' W 026°09'0 0.0 1016.5 22.6
2015-Feb-18 10:00N 15°07' W 026°09'0 0.0 1016.1 22.6
2015-Feb-18 08:00N 15°07' W 026°09'1 1.0 1015.1 22.6
2015-Feb-18 07:00N 15°06' W 026°08'1 1.4 1014.7 22.6
2015-Feb-18 06:00N 15°06' W 026°06'1 0.5 1014.5 22.6
2015-Feb-18 03:00N 15°07' W 026°05'2 1.7 1015.5 22.6
2015-Feb-18 02:00N 15°06' W 026°07'2 0.6 1016.2 22.6
2015-Feb-17 23:00N 15°06' W 026°05'   1016.6 22.6

Dump ship's entire track history